sensor_id;sensor_type;location;lat;lon;timestamp;P1;durP1;ratioP1;P2;durP2;ratioP2
22983;SDS011;11658;48.908;9.140;2023-07-24T04:01:14;3.80;;;2.27;;
22983;SDS011;11658;48.908;9.140;2023-07-24T04:03:39;3.80;;;2.10;;
22983;SDS011;11658;48.908;9.140;2023-07-24T04:06:05;3.77;;;2.17;;
22983;SDS011;11658;48.908;9.140;2023-07-24T04:08:30;3.67;;;2.17;;
22983;SDS011;11658;48.908;9.140;2023-07-24T04:10:56;1.77;;;1.63;;
22983;SDS011;11658;48.908;9.140;2023-07-24T04:13:22;4.70;;;2.97;;
22983;SDS011;11658;48.908;9.140;2023-07-24T04:15:47;4.63;;;2.60;;
22983;SDS011;11658;48.908;9.140;2023-07-24T04:18:13;5.03;;;2.43;;
22983;SDS011;11658;48.908;9.140;2023-07-24T04:20:39;5.73;;;3.00;;
22983;SDS011;11658;48.908;9.140;2023-07-24T04:23:04;4.23;;;2.60;;
22983;SDS011;11658;48.908;9.140;2023-07-24T04:25:30;4.93;;;2.80;;
22983;SDS011;11658;48.908;9.140;2023-07-24T04:27:55;5.30;;;2.57;;
22983;SDS011;11658;48.908;9.140;2023-07-24T04:30:21;5.37;;;2.90;;
22983;SDS011;11658;48.908;9.140;2023-07-24T04:32:47;4.43;;;2.47;;
22983;SDS011;11658;48.908;9.140;2023-07-24T04:35:12;4.80;;;2.40;;
22983;SDS011;11658;48.908;9.140;2023-07-24T04:37:38;5.30;;;2.50;;
22983;SDS011;11658;48.908;9.140;2023-07-24T04:40:03;3.73;;;2.17;;
22983;SDS011;11658;48.908;9.140;2023-07-24T04:42:30;5.63;;;3.00;;
22983;SDS011;11658;48.908;9.140;2023-07-24T04:44:55;3.80;;;2.70;;
22983;SDS011;11658;48.908;9.140;2023-07-24T04:47:21;6.03;;;2.90;;
22983;SDS011;11658;48.908;9.140;2023-07-24T04:49:47;3.17;;;2.30;;
22983;SDS011;11658;48.908;9.140;2023-07-24T04:52:12;4.17;;;2.50;;
22983;SDS011;11658;48.908;9.140;2023-07-24T04:54:38;3.77;;;2.30;;
22983;SDS011;11658;48.908;9.140;2023-07-24T04:57:03;3.67;;;2.07;;
22983;SDS011;11658;48.908;9.140;2023-07-24T04:59:29;4.23;;;2.47;;
22983;SDS011;11658;48.908;9.140;2023-07-24T05:01:55;3.13;;;2.00;;
22983;SDS011;11658;48.908;9.140;2023-07-24T05:04:21;5.30;;;2.70;;
22983;SDS011;11658;48.908;9.140;2023-07-24T05:06:46;4.33;;;2.77;;
22983;SDS011;11658;48.908;9.140;2023-07-24T05:09:12;4.10;;;2.20;;
22983;SDS011;11658;48.908;9.140;2023-07-24T05:11:38;3.57;;;2.73;;
22983;SDS011;11658;48.908;9.140;2023-07-24T05:14:03;4.17;;;2.57;;
22983;SDS011;11658;48.908;9.140;2023-07-24T05:16:29;3.87;;;2.40;;
22983;SDS011;11658;48.908;9.140;2023-07-24T05:18:54;4.00;;;2.57;;
22983;SDS011;11658;48.908;9.140;2023-07-24T05:21:20;4.43;;;2.97;;
22983;SDS011;11658;48.908;9.140;2023-07-24T05:23:46;4.27;;;2.43;;
22983;SDS011;11658;48.908;9.140;2023-07-24T05:26:11;7.17;;;3.30;;
22983;SDS011;11658;48.908;9.140;2023-07-24T05:28:37;4.63;;;2.30;;
22983;SDS011;11658;48.908;9.140;2023-07-24T05:31:03;4.97;;;2.93;;
22983;SDS011;11658;48.908;9.140;2023-07-24T05:33:30;4.47;;;2.13;;
22983;SDS011;11658;48.908;9.140;2023-07-24T05:36:02;5.00;;;3.00;;
22983;SDS011;11658;48.908;9.140;2023-07-24T05:38:29;3.63;;;2.40;;
22983;SDS011;11658;48.908;9.140;2023-07-24T05:40:55;7.97;;;2.50;;
22983;SDS011;11658;48.908;9.140;2023-07-24T05:43:22;5.47;;;2.63;;
22983;SDS011;11658;48.908;9.140;2023-07-24T05:45:47;4.93;;;2.43;;
22983;SDS011;11658;48.908;9.140;2023-07-24T05:48:13;5.07;;;2.70;;
22983;SDS011;11658;48.908;9.140;2023-07-24T05:50:38;8.10;;;3.10;;
22983;SDS011;11658;48.908;9.140;2023-07-24T05:53:06;5.27;;;2.97;;
22983;SDS011;11658;48.908;9.140;2023-07-24T05:55:31;3.23;;;2.17;;
22983;SDS011;11658;48.908;9.140;2023-07-24T05:57:57;3.70;;;2.40;;
22983;SDS011;11658;48.908;9.140;2023-07-24T06:00:22;5.20;;;3.00;;
22983;SDS011;11658;48.908;9.140;2023-07-24T06:02:48;6.37;;;2.77;;
22983;SDS011;11658;48.908;9.140;2023-07-24T06:05:13;5.97;;;2.43;;
22983;SDS011;11658;48.908;9.140;2023-07-24T06:07:39;5.63;;;3.40;;
22983;SDS011;11658;48.908;9.140;2023-07-24T06:10:04;4.80;;;2.50;;
22983;SDS011;11658;48.908;9.140;2023-07-24T06:12:30;4.50;;;2.43;;
22983;SDS011;11658;48.908;9.140;2023-07-24T06:14:56;6.03;;;2.63;;
22983;SDS011;11658;48.908;9.140;2023-07-24T06:17:21;5.37;;;2.73;;
22983;SDS011;11658;48.908;9.140;2023-07-24T06:19:47;8.77;;;3.00;;
22983;SDS011;11658;48.908;9.140;2023-07-24T06:22:13;10.30;;;3.03;;
22983;SDS011;11658;48.908;9.140;2023-07-24T06:24:38;4.70;;;2.90;;
22983;SDS011;11658;48.908;9.140;2023-07-24T06:27:04;5.30;;;3.03;;
22983;SDS011;11658;48.908;9.140;2023-07-24T06:29:31;5.40;;;3.00;;
22983;SDS011;11658;48.908;9.140;2023-07-24T06:31:57;7.03;;;3.13;;
22983;SDS011;11658;48.908;9.140;2023-07-24T06:34:23;5.90;;;3.20;;
22983;SDS011;11658;48.908;9.140;2023-07-24T06:36:48;4.47;;;2.60;;
22983;SDS011;11658;48.908;9.140;2023-07-24T06:39:14;4.93;;;2.47;;
22983;SDS011;11658;48.908;9.140;2023-07-24T06:41:40;6.67;;;2.73;;
22983;SDS011;11658;48.908;9.140;2023-07-24T06:44:05;3.77;;;2.33;;
22983;SDS011;11658;48.908;9.140;2023-07-24T06:46:31;6.97;;;3.00;;
22983;SDS011;11658;48.908;9.140;2023-07-24T06:48:56;7.87;;;2.63;;
22983;SDS011;11658;48.908;9.140;2023-07-24T06:51:22;8.27;;;2.57;;
22983;SDS011;11658;48.908;9.140;2023-07-24T06:53:47;7.87;;;2.83;;
22983;SDS011;11658;48.908;9.140;2023-07-24T06:56:13;5.53;;;2.70;;
22983;SDS011;11658;48.908;9.140;2023-07-24T06:58:38;5.47;;;2.73;;
22983;SDS011;11658;48.908;9.140;2023-07-24T07:01:07;6.70;;;2.63;;
22983;SDS011;11658;48.908;9.140;2023-07-24T07:03:33;4.67;;;2.50;;
22983;SDS011;11658;48.908;9.140;2023-07-24T07:06:01;5.50;;;3.17;;
22983;SDS011;11658;48.908;9.140;2023-07-24T07:08:28;3.97;;;2.33;;
22983;SDS011;11658;48.908;9.140;2023-07-24T07:10:58;5.70;;;2.80;;
22983;SDS011;11658;48.908;9.140;2023-07-24T07:13:24;6.43;;;2.73;;
22983;SDS011;11658;48.908;9.140;2023-07-24T07:15:50;7.73;;;2.53;;
22983;SDS011;11658;48.908;9.140;2023-07-24T07:18:15;5.23;;;2.50;;
22983;SDS011;11658;48.908;9.140;2023-07-24T07:20:44;4.27;;;2.27;;
22983;SDS011;11658;48.908;9.140;2023-07-24T07:23:14;4.80;;;2.53;;
22983;SDS011;11658;48.908;9.140;2023-07-24T07:25:40;12.03;;;3.07;;
22983;SDS011;11658;48.908;9.140;2023-07-24T07:28:08;5.00;;;2.60;;
22983;SDS011;11658;48.908;9.140;2023-07-24T07:30:34;4.60;;;2.53;;
22983;SDS011;11658;48.908;9.140;2023-07-24T07:32:59;8.53;;;3.07;;
22983;SDS011;11658;48.908;9.140;2023-07-24T07:35:25;6.43;;;2.77;;
22983;SDS011;11658;48.908;9.140;2023-07-24T07:37:50;3.73;;;2.20;;
22983;SDS011;11658;48.908;9.140;2023-07-24T07:40:16;5.73;;;3.30;;
22983;SDS011;11658;48.908;9.140;2023-07-24T07:42:42;3.53;;;2.17;;
22983;SDS011;11658;48.908;9.140;2023-07-24T07:45:07;4.00;;;2.70;;
22983;SDS011;11658;48.908;9.140;2023-07-24T07:47:33;6.43;;;2.27;;
22983;SDS011;11658;48.908;9.140;2023-07-24T07:49:59;5.07;;;2.90;;
22983;SDS011;11658;48.908;9.140;2023-07-24T07:52:24;4.93;;;2.20;;
22983;SDS011;11658;48.908;9.140;2023-07-24T07:54:50;6.83;;;3.03;;
22983;SDS011;11658;48.908;9.140;2023-07-24T07:57:15;5.07;;;2.97;;
22983;SDS011;11658;48.908;9.140;2023-07-24T07:59:41;6.80;;;2.87;;
22983;SDS011;11658;48.908;9.140;2023-07-24T08:02:07;7.67;;;3.13;;
22983;SDS011;11658;48.908;9.140;2023-07-24T08:04:33;4.87;;;2.77;;
22983;SDS011;11658;48.908;9.140;2023-07-24T08:06:58;6.20;;;2.60;;
22983;SDS011;11658;48.908;9.140;2023-07-24T08:09:24;4.63;;;2.73;;
22983;SDS011;11658;48.908;9.140;2023-07-24T08:11:50;3.73;;;2.10;;
22983;SDS011;11658;48.908;9.140;2023-07-24T08:14:16;4.80;;;2.63;;
22983;SDS011;11658;48.908;9.140;2023-07-24T08:16:42;4.10;;;2.57;;
22983;SDS011;11658;48.908;9.140;2023-07-24T08:19:08;4.60;;;2.53;;
22983;SDS011;11658;48.908;9.140;2023-07-24T08:21:34;4.27;;;3.30;;
22983;SDS011;11658;48.908;9.140;2023-07-24T08:23:59;3.90;;;2.60;;
22983;SDS011;11658;48.908;9.140;2023-07-24T08:26:27;6.40;;;3.40;;
22983;SDS011;11658;48.908;9.140;2023-07-24T08:28:52;4.67;;;3.27;;
22983;SDS011;11658;48.908;9.140;2023-07-24T08:31:18;5.63;;;2.90;;
22983;SDS011;11658;48.908;9.140;2023-07-24T08:33:44;4.87;;;2.67;;
22983;SDS011;11658;48.908;9.140;2023-07-24T08:36:09;6.30;;;3.23;;
22983;SDS011;11658;48.908;9.140;2023-07-24T08:38:36;3.57;;;2.50;;
22983;SDS011;11658;48.908;9.140;2023-07-24T08:41:03;4.93;;;2.97;;
22983;SDS011;11658;48.908;9.140;2023-07-24T08:43:30;4.00;;;2.30;;
22983;SDS011;11658;48.908;9.140;2023-07-24T08:45:59;2.47;;;2.10;;
22983;SDS011;11658;48.908;9.140;2023-07-24T08:48:30;3.73;;;2.37;;
22983;SDS011;11658;48.908;9.140;2023-07-24T08:50:59;3.87;;;2.50;;
22983;SDS011;11658;48.908;9.140;2023-07-24T08:53:25;5.33;;;2.80;;
22983;SDS011;11658;48.908;9.140;2023-07-24T08:55:51;4.83;;;2.40;;
22983;SDS011;11658;48.908;9.140;2023-07-24T08:58:19;5.80;;;2.90;;
22983;SDS011;11658;48.908;9.140;2023-07-24T09:00:45;5.13;;;2.67;;
22983;SDS011;11658;48.908;9.140;2023-07-24T09:03:11;9.63;;;3.37;;
22983;SDS011;11658;48.908;9.140;2023-07-24T09:05:36;5.20;;;2.73;;
22983;SDS011;11658;48.908;9.140;2023-07-24T09:08:02;3.80;;;2.40;;
22983;SDS011;11658;48.908;9.140;2023-07-24T09:10:28;4.40;;;2.87;;
22983;SDS011;11658;48.908;9.140;2023-07-24T09:12:54;5.30;;;2.87;;
22983;SDS011;11658;48.908;9.140;2023-07-24T09:15:20;4.97;;;3.17;;
22983;SDS011;11658;48.908;9.140;2023-07-24T09:17:52;5.10;;;3.47;;
22983;SDS011;11658;48.908;9.140;2023-07-24T09:20:19;3.57;;;2.00;;
22983;SDS011;11658;48.908;9.140;2023-07-24T09:22:48;4.70;;;2.42;;
22983;SDS011;11658;48.908;9.140;2023-07-24T09:25:15;6.60;;;2.73;;
22983;SDS011;11658;48.908;9.140;2023-07-24T09:27:40;4.90;;;2.55;;
22983;SDS011;11658;48.908;9.140;2023-07-24T09:30:15;5.68;;;2.90;;
22983;SDS011;11658;48.908;9.140;2023-07-24T09:32:41;4.40;;;2.13;;
22983;SDS011;11658;48.908;9.140;2023-07-24T09:35:16;4.85;;;2.38;;
22983;SDS011;11658;48.908;9.140;2023-07-24T09:37:43;8.57;;;2.63;;
22983;SDS011;11658;48.908;9.140;2023-07-24T09:40:09;3.58;;;2.20;;
22983;SDS011;11658;48.908;9.140;2023-07-24T09:42:36;4.88;;;2.65;;
22983;SDS011;11658;48.908;9.140;2023-07-24T09:45:03;6.32;;;2.63;;
22983;SDS011;11658;48.908;9.140;2023-07-24T09:47:32;3.70;;;2.30;;
22983;SDS011;11658;48.908;9.140;2023-07-24T09:49:59;6.85;;;2.25;;
22983;SDS011;11658;48.908;9.140;2023-07-24T09:52:28;4.93;;;2.10;;
22983;SDS011;11658;48.908;9.140;2023-07-24T09:54:58;4.10;;;2.25;;
22983;SDS011;11658;48.908;9.140;2023-07-24T09:57:34;3.95;;;2.63;;
22983;SDS011;11658;48.908;9.140;2023-07-24T10:00:00;6.30;;;2.72;;
22983;SDS011;11658;48.908;9.140;2023-07-24T10:02:26;4.80;;;2.08;;
22983;SDS011;11658;48.908;9.140;2023-07-24T10:04:53;3.60;;;2.60;;
22983;SDS011;11658;48.908;9.140;2023-07-24T10:07:20;3.80;;;2.42;;
22983;SDS011;11658;48.908;9.140;2023-07-24T10:09:48;4.00;;;2.25;;
22983;SDS011;11658;48.908;9.140;2023-07-24T10:12:15;3.40;;;2.00;;
22983;SDS011;11658;48.908;9.140;2023-07-24T10:14:43;4.75;;;2.53;;
22983;SDS011;11658;48.908;9.140;2023-07-24T10:17:10;3.58;;;2.67;;
22983;SDS011;11658;48.908;9.140;2023-07-24T10:19:42;4.30;;;1.97;;
22983;SDS011;11658;48.908;9.140;2023-07-24T10:22:17;3.53;;;2.40;;
22983;SDS011;11658;48.908;9.140;2023-07-24T10:24:44;3.03;;;2.20;;
22983;SDS011;11658;48.908;9.140;2023-07-24T10:27:11;2.87;;;2.10;;
22983;SDS011;11658;48.908;9.140;2023-07-24T10:29:36;3.07;;;2.10;;
22983;SDS011;11658;48.908;9.140;2023-07-24T10:32:02;4.67;;;2.53;;
22983;SDS011;11658;48.908;9.140;2023-07-24T10:34:38;4.97;;;2.10;;
22983;SDS011;11658;48.908;9.140;2023-07-24T10:37:06;3.50;;;1.90;;
22983;SDS011;11658;48.908;9.140;2023-07-24T10:39:40;3.80;;;2.00;;
22983;SDS011;11658;48.908;9.140;2023-07-24T10:42:07;3.67;;;1.97;;
22983;SDS011;11658;48.908;9.140;2023-07-24T10:44:34;3.73;;;2.03;;
22983;SDS011;11658;48.908;9.140;2023-07-24T10:47:00;2.53;;;1.80;;
22983;SDS011;11658;48.908;9.140;2023-07-24T10:49:26;3.93;;;1.87;;
22983;SDS011;11658;48.908;9.140;2023-07-24T10:51:56;4.13;;;2.60;;
22983;SDS011;11658;48.908;9.140;2023-07-24T10:54:24;3.67;;;2.20;;
22983;SDS011;11658;48.908;9.140;2023-07-24T10:56:57;4.77;;;2.17;;
22983;SDS011;11658;48.908;9.140;2023-07-24T10:59:34;3.27;;;1.63;;
22983;SDS011;11658;48.908;9.140;2023-07-24T11:02:03;3.03;;;2.00;;
22983;SDS011;11658;48.908;9.140;2023-07-24T11:04:29;2.80;;;1.73;;
22983;SDS011;11658;48.908;9.140;2023-07-24T11:06:55;3.57;;;2.10;;
22983;SDS011;11658;48.908;9.140;2023-07-24T11:09:22;5.23;;;2.47;;
22983;SDS011;11658;48.908;9.140;2023-07-24T11:11:58;6.37;;;2.20;;
22983;SDS011;11658;48.908;9.140;2023-07-24T11:14:24;4.80;;;2.27;;
22983;SDS011;11658;48.908;9.140;2023-07-24T11:16:50;7.00;;;2.40;;
22983;SDS011;11658;48.908;9.140;2023-07-24T11:19:22;5.23;;;3.00;;
22983;SDS011;11658;48.908;9.140;2023-07-24T11:21:51;6.57;;;2.40;;
22983;SDS011;11658;48.908;9.140;2023-07-24T11:24:17;3.87;;;2.10;;
22983;SDS011;11658;48.908;9.140;2023-07-24T11:26:43;3.87;;;2.30;;
22983;SDS011;11658;48.908;9.140;2023-07-24T11:29:12;2.70;;;2.13;;
22983;SDS011;11658;48.908;9.140;2023-07-24T11:31:38;4.33;;;2.10;;
22983;SDS011;11658;48.908;9.140;2023-07-24T11:34:04;7.13;;;2.27;;
22983;SDS011;11658;48.908;9.140;2023-07-24T11:36:30;4.43;;;2.07;;
22983;SDS011;11658;48.908;9.140;2023-07-24T11:38:57;4.23;;;2.47;;
22983;SDS011;11658;48.908;9.140;2023-07-24T11:41:22;4.30;;;1.97;;
22983;SDS011;11658;48.908;9.140;2023-07-24T11:43:49;2.87;;;1.90;;
22983;SDS011;11658;48.908;9.140;2023-07-24T11:46:25;4.43;;;2.30;;
22983;SDS011;11658;48.908;9.140;2023-07-24T11:48:52;3.73;;;2.30;;
22983;SDS011;11658;48.908;9.140;2023-07-24T11:51:20;3.13;;;1.70;;
22983;SDS011;11658;48.908;9.140;2023-07-24T11:53:46;2.93;;;2.10;;
22983;SDS011;11658;48.908;9.140;2023-07-24T11:56:15;3.47;;;2.47;;
22983;SDS011;11658;48.908;9.140;2023-07-24T11:58:42;2.97;;;2.27;;
22983;SDS011;11658;48.908;9.140;2023-07-24T12:01:08;2.73;;;1.70;;
22983;SDS011;11658;48.908;9.140;2023-07-24T12:03:33;3.87;;;2.17;;
22983;SDS011;11658;48.908;9.140;2023-07-24T12:06:00;4.20;;;2.20;;
22983;SDS011;11658;48.908;9.140;2023-07-24T12:08:31;3.43;;;1.90;;
22983;SDS011;11658;48.908;9.140;2023-07-24T12:10:58;4.17;;;2.27;;
22983;SDS011;11658;48.908;9.140;2023-07-24T12:13:24;2.00;;;1.70;;
22983;SDS011;11658;48.908;9.140;2023-07-24T12:15:52;3.03;;;1.93;;
22983;SDS011;11658;48.908;9.140;2023-07-24T12:18:17;5.17;;;1.60;;
22983;SDS011;11658;48.908;9.140;2023-07-24T12:20:43;2.90;;;1.60;;
22983;SDS011;11658;48.908;9.140;2023-07-24T12:23:09;3.13;;;1.70;;
22983;SDS011;11658;48.908;9.140;2023-07-24T12:25:34;2.87;;;1.93;;
22983;SDS011;11658;48.908;9.140;2023-07-24T12:28:00;2.60;;;1.50;;
22983;SDS011;11658;48.908;9.140;2023-07-24T12:30:26;2.73;;;1.80;;
22983;SDS011;11658;48.908;9.140;2023-07-24T12:32:51;3.40;;;1.80;;
22983;SDS011;11658;48.908;9.140;2023-07-24T12:35:17;2.67;;;1.90;;
22983;SDS011;11658;48.908;9.140;2023-07-24T12:37:43;2.93;;;1.73;;
22983;SDS011;11658;48.908;9.140;2023-07-24T12:40:10;3.23;;;2.07;;
22983;SDS011;11658;48.908;9.140;2023-07-24T12:42:36;3.07;;;2.27;;
22983;SDS011;11658;48.908;9.140;2023-07-24T12:45:02;2.30;;;1.80;;
22983;SDS011;11658;48.908;9.140;2023-07-24T12:47:28;2.83;;;1.83;;
22983;SDS011;11658;48.908;9.140;2023-07-24T12:49:55;3.67;;;2.17;;
22983;SDS011;11658;48.908;9.140;2023-07-24T12:52:21;2.90;;;1.90;;
22983;SDS011;11658;48.908;9.140;2023-07-24T12:54:47;2.63;;;2.10;;
22983;SDS011;11658;48.908;9.140;2023-07-24T12:57:12;3.70;;;2.23;;
22983;SDS011;11658;48.908;9.140;2023-07-24T12:59:38;2.87;;;1.90;;
22983;SDS011;11658;48.908;9.140;2023-07-24T13:02:03;3.50;;;1.97;;
22983;SDS011;11658;48.908;9.140;2023-07-24T13:04:29;4.23;;;2.10;;
22983;SDS011;11658;48.908;9.140;2023-07-24T13:06:55;3.63;;;2.00;;
22983;SDS011;11658;48.908;9.140;2023-07-24T13:09:20;4.60;;;2.60;;
22983;SDS011;11658;48.908;9.140;2023-07-24T13:11:47;6.83;;;2.57;;
22983;SDS011;11658;48.908;9.140;2023-07-24T13:14:15;3.00;;;2.07;;
22983;SDS011;11658;48.908;9.140;2023-07-24T13:16:41;2.90;;;1.87;;
22983;SDS011;11658;48.908;9.140;2023-07-24T13:19:07;2.73;;;1.67;;
22983;SDS011;11658;48.908;9.140;2023-07-24T13:21:32;2.17;;;1.97;;
22983;SDS011;11658;48.908;9.140;2023-07-24T13:23:58;4.00;;;2.10;;
22983;SDS011;11658;48.908;9.140;2023-07-24T13:26:24;2.57;;;1.80;;
22983;SDS011;11658;48.908;9.140;2023-07-24T13:28:49;2.63;;;1.87;;
22983;SDS011;11658;48.908;9.140;2023-07-24T13:33:42;3.77;;;1.90;;
22983;SDS011;11658;48.908;9.140;2023-07-24T13:36:07;3.07;;;2.03;;
22983;SDS011;11658;48.908;9.140;2023-07-24T13:38:34;3.17;;;1.50;;
22983;SDS011;11658;48.908;9.140;2023-07-24T13:41:00;3.23;;;2.13;;
22983;SDS011;11658;48.908;9.140;2023-07-24T13:43:26;3.43;;;2.43;;
22983;SDS011;11658;48.908;9.140;2023-07-24T13:45:52;5.40;;;2.00;;
22983;SDS011;11658;48.908;9.140;2023-07-24T13:48:18;3.27;;;1.97;;
22983;SDS011;11658;48.908;9.140;2023-07-24T13:50:44;4.20;;;1.93;;
22983;SDS011;11658;48.908;9.140;2023-07-24T13:53:09;3.40;;;1.93;;
22983;SDS011;11658;48.908;9.140;2023-07-24T13:55:35;3.93;;;1.80;;
22983;SDS011;11658;48.908;9.140;2023-07-24T13:58:01;3.53;;;2.10;;
22983;SDS011;11658;48.908;9.140;2023-07-24T14:00:26;3.63;;;2.10;;
22983;SDS011;11658;48.908;9.140;2023-07-24T14:02:52;3.03;;;1.80;;
22983;SDS011;11658;48.908;9.140;2023-07-24T14:05:17;3.40;;;1.88;;
22983;SDS011;11658;48.908;9.140;2023-07-24T14:07:44;3.00;;;1.80;;
22983;SDS011;11658;48.908;9.140;2023-07-24T14:10:10;5.57;;;2.38;;
22983;SDS011;11658;48.908;9.140;2023-07-24T14:12:36;3.97;;;2.40;;
22983;SDS011;11658;48.908;9.140;2023-07-24T14:15:01;3.33;;;1.73;;
22983;SDS011;11658;48.908;9.140;2023-07-24T14:17:28;3.97;;;2.25;;
22983;SDS011;11658;48.908;9.140;2023-07-24T14:19:54;3.47;;;2.00;;
22983;SDS011;11658;48.908;9.140;2023-07-24T14:22:19;4.18;;;1.92;;
22983;SDS011;11658;48.908;9.140;2023-07-24T14:24:45;2.67;;;2.00;;
22983;SDS011;11658;48.908;9.140;2023-07-24T14:27:11;2.85;;;1.80;;
22983;SDS011;11658;48.908;9.140;2023-07-24T14:29:38;2.72;;;1.77;;
22983;SDS011;11658;48.908;9.140;2023-07-24T14:32:04;3.45;;;2.67;;
22983;SDS011;11658;48.908;9.140;2023-07-24T14:34:30;2.85;;;1.75;;
22983;SDS011;11658;48.908;9.140;2023-07-24T14:36:55;3.97;;;2.40;;
22983;SDS011;11658;48.908;9.140;2023-07-24T14:39:21;4.00;;;1.52;;
22983;SDS011;11658;48.908;9.140;2023-07-24T14:41:47;3.25;;;1.88;;
22983;SDS011;11658;48.908;9.140;2023-07-24T14:44:12;3.38;;;1.90;;
22983;SDS011;11658;48.908;9.140;2023-07-24T14:46:38;3.22;;;1.98;;
22983;SDS011;11658;48.908;9.140;2023-07-24T14:49:03;4.68;;;1.63;;
22983;SDS011;11658;48.908;9.140;2023-07-24T14:51:29;2.33;;;1.65;;
22983;SDS011;11658;48.908;9.140;2023-07-24T14:53:55;1.95;;;1.42;;
22983;SDS011;11658;48.908;9.140;2023-07-24T14:56:20;1.48;;;1.30;;
22983;SDS011;11658;48.908;9.140;2023-07-24T14:58:46;2.83;;;1.75;;
22983;SDS011;11658;48.908;9.140;2023-07-24T15:01:12;3.03;;;1.63;;
22983;SDS011;11658;48.908;9.140;2023-07-24T15:03:38;2.80;;;1.13;;
22983;SDS011;11658;48.908;9.140;2023-07-24T15:06:03;1.25;;;1.15;;
22983;SDS011;11658;48.908;9.140;2023-07-24T15:08:31;2.20;;;1.60;;
22983;SDS011;11658;48.908;9.140;2023-07-24T15:11:00;1.95;;;1.50;;
22983;SDS011;11658;48.908;9.140;2023-07-24T15:13:26;2.33;;;1.45;;
22983;SDS011;11658;48.908;9.140;2023-07-24T15:15:52;2.25;;;1.35;;
22983;SDS011;11658;48.908;9.140;2023-07-24T15:18:17;3.60;;;1.80;;
22983;SDS011;11658;48.908;9.140;2023-07-24T15:20:43;1.98;;;1.30;;
22983;SDS011;11658;48.908;9.140;2023-07-24T15:23:09;1.98;;;1.40;;
22983;SDS011;11658;48.908;9.140;2023-07-24T15:25:35;2.17;;;1.50;;
22983;SDS011;11658;48.908;9.140;2023-07-24T15:28:00;1.80;;;1.40;;
22983;SDS011;11658;48.908;9.140;2023-07-24T15:30:26;3.80;;;1.92;;
22983;SDS011;11658;48.908;9.140;2023-07-24T15:32:51;2.40;;;1.65;;
22983;SDS011;11658;48.908;9.140;2023-07-24T15:35:17;2.00;;;1.60;;
22983;SDS011;11658;48.908;9.140;2023-07-24T15:37:42;2.33;;;1.58;;
22983;SDS011;11658;48.908;9.140;2023-07-24T15:40:08;4.68;;;2.45;;
22983;SDS011;11658;48.908;9.140;2023-07-24T15:42:34;2.25;;;1.50;;
22983;SDS011;11658;48.908;9.140;2023-07-24T15:45:00;2.13;;;1.40;;
22983;SDS011;11658;48.908;9.140;2023-07-24T15:47:26;1.80;;;1.20;;
22983;SDS011;11658;48.908;9.140;2023-07-24T15:49:52;3.10;;;1.30;;
22983;SDS011;11658;48.908;9.140;2023-07-24T15:52:17;1.85;;;1.30;;
22983;SDS011;11658;48.908;9.140;2023-07-24T15:54:43;2.77;;;1.67;;
22983;SDS011;11658;48.908;9.140;2023-07-24T15:57:09;1.98;;;1.48;;
22983;SDS011;11658;48.908;9.140;2023-07-24T15:59:34;1.57;;;1.30;;
22983;SDS011;11658;48.908;9.140;2023-07-24T16:02:00;2.13;;;1.30;;
22983;SDS011;11658;48.908;9.140;2023-07-24T16:04:26;2.33;;;1.20;;
22983;SDS011;11658;48.908;9.140;2023-07-24T16:06:52;2.13;;;1.50;;
22983;SDS011;11658;48.908;9.140;2023-07-24T16:09:17;2.93;;;1.50;;
22983;SDS011;11658;48.908;9.140;2023-07-24T16:11:43;1.60;;;1.50;;
22983;SDS011;11658;48.908;9.140;2023-07-24T16:14:09;1.50;;;1.03;;
22983;SDS011;11658;48.908;9.140;2023-07-24T16:16:34;3.47;;;1.30;;
22983;SDS011;11658;48.908;9.140;2023-07-24T16:21:55;2.60;;;1.47;;
22983;SDS011;11658;48.908;9.140;2023-07-24T16:24:23;2.30;;;1.53;;
22983;SDS011;11658;48.908;9.140;2023-07-24T16:26:49;3.93;;;1.63;;
22983;SDS011;11658;48.908;9.140;2023-07-24T16:29:15;4.70;;;2.10;;
22983;SDS011;11658;48.908;9.140;2023-07-24T16:31:41;2.60;;;1.93;;
22983;SDS011;11658;48.908;9.140;2023-07-24T16:34:06;2.00;;;1.30;;
22983;SDS011;11658;48.908;9.140;2023-07-24T16:36:32;3.57;;;2.00;;
22983;SDS011;11658;48.908;9.140;2023-07-24T16:39:00;4.37;;;2.37;;
22983;SDS011;11658;48.908;9.140;2023-07-24T16:41:26;2.13;;;1.33;;
22983;SDS011;11658;48.908;9.140;2023-07-24T16:43:51;2.67;;;2.07;;
22983;SDS011;11658;48.908;9.140;2023-07-24T16:46:17;3.07;;;1.90;;
22983;SDS011;11658;48.908;9.140;2023-07-24T16:48:43;2.67;;;1.37;;
22983;SDS011;11658;48.908;9.140;2023-07-24T16:51:12;2.57;;;1.60;;
22983;SDS011;11658;48.908;9.140;2023-07-24T16:53:38;2.17;;;1.27;;
22983;SDS011;11658;48.908;9.140;2023-07-24T16:56:03;3.40;;;1.60;;
22983;SDS011;11658;48.908;9.140;2023-07-24T16:58:29;1.47;;;1.00;;
22983;SDS011;11658;48.908;9.140;2023-07-24T17:00:54;2.73;;;1.63;;
22983;SDS011;11658;48.908;9.140;2023-07-24T17:03:20;1.87;;;1.40;;
22983;SDS011;11658;48.908;9.140;2023-07-24T17:05:46;1.90;;;1.53;;
22983;SDS011;11658;48.908;9.140;2023-07-24T17:08:11;1.50;;;1.37;;
22983;SDS011;11658;48.908;9.140;2023-07-24T17:10:41;1.80;;;1.07;;
22983;SDS011;11658;48.908;9.140;2023-07-24T17:13:11;1.57;;;0.90;;
22983;SDS011;11658;48.908;9.140;2023-07-24T17:15:37;1.83;;;1.40;;
22983;SDS011;11658;48.908;9.140;2023-07-24T17:18:03;4.27;;;1.80;;
22983;SDS011;11658;48.908;9.140;2023-07-24T17:20:29;1.67;;;1.30;;
22983;SDS011;11658;48.908;9.140;2023-07-24T17:22:55;1.53;;;1.17;;
22983;SDS011;11658;48.908;9.140;2023-07-24T17:25:21;2.87;;;1.30;;
22983;SDS011;11658;48.908;9.140;2023-07-24T17:27:47;1.13;;;0.77;;
22983;SDS011;11658;48.908;9.140;2023-07-24T17:30:12;1.03;;;0.90;;
22983;SDS011;11658;48.908;9.140;2023-07-24T17:32:38;1.37;;;1.23;;
22983;SDS011;11658;48.908;9.140;2023-07-24T17:35:04;2.93;;;1.10;;
22983;SDS011;11658;48.908;9.140;2023-07-24T17:37:30;1.03;;;0.97;;
22983;SDS011;11658;48.908;9.140;2023-07-24T17:40:02;2.05;;;1.50;;
22983;SDS011;11658;48.908;9.140;2023-07-24T17:42:29;1.52;;;0.98;;
22983;SDS011;11658;48.908;9.140;2023-07-24T17:44:55;1.10;;;0.57;;
22983;SDS011;11658;48.908;9.140;2023-07-24T17:47:20;1.20;;;0.70;;
22983;SDS011;11658;48.908;9.140;2023-07-24T17:49:46;1.05;;;0.82;;
22983;SDS011;11658;48.908;9.140;2023-07-24T17:52:11;0.60;;;0.60;;
22983;SDS011;11658;48.908;9.140;2023-07-24T17:54:38;1.80;;;0.90;;
22983;SDS011;11658;48.908;9.140;2023-07-24T17:57:08;0.85;;;0.85;;
22983;SDS011;11658;48.908;9.140;2023-07-24T17:59:34;1.55;;;0.85;;
22983;SDS011;11658;48.908;9.140;2023-07-24T18:01:59;0.70;;;0.70;;
22983;SDS011;11658;48.908;9.140;2023-07-24T18:04:25;1.03;;;0.60;;
22983;SDS011;11658;48.908;9.140;2023-07-24T18:06:50;0.73;;;0.70;;
22983;SDS011;11658;48.908;9.140;2023-07-24T18:09:16;1.23;;;0.50;;
22983;SDS011;11658;48.908;9.140;2023-07-24T18:11:42;1.40;;;0.70;;
22983;SDS011;11658;48.908;9.140;2023-07-24T18:14:07;1.47;;;1.00;;
22983;SDS011;11658;48.908;9.140;2023-07-24T18:16:33;1.00;;;0.80;;
22983;SDS011;11658;48.908;9.140;2023-07-24T18:18:59;0.90;;;0.90;;
22983;SDS011;11658;48.908;9.140;2023-07-24T18:21:24;0.93;;;0.83;;
22983;SDS011;11658;48.908;9.140;2023-07-24T18:23:50;0.93;;;0.77;;
22983;SDS011;11658;48.908;9.140;2023-07-24T18:26:15;1.07;;;0.93;;
22983;SDS011;11658;48.908;9.140;2023-07-24T18:28:41;1.17;;;0.83;;
22983;SDS011;11658;48.908;9.140;2023-07-24T18:31:06;0.70;;;0.70;;
22983;SDS011;11658;48.908;9.140;2023-07-24T18:33:32;4.50;;;0.90;;
22983;SDS011;11658;48.908;9.140;2023-07-24T18:35:58;0.97;;;0.70;;
22983;SDS011;11658;48.908;9.140;2023-07-24T18:38:24;0.97;;;0.87;;
22983;SDS011;11658;48.908;9.140;2023-07-24T18:40:49;2.70;;;1.80;;
22983;SDS011;11658;48.908;9.140;2023-07-24T18:43:15;0.93;;;0.83;;
22983;SDS011;11658;48.908;9.140;2023-07-24T18:45:41;1.00;;;0.70;;
22983;SDS011;11658;48.908;9.140;2023-07-24T18:48:06;2.27;;;0.90;;